Time;durP1;ratioP1;P1;durP2;ratioP2;P2;SDS_P1;SDS_P2;PMS_P1;PMS_P2;Temp;Humidity;BMP_temperature;BMP_pressure;BME280_temperature;BME280_humidity;BME280_pressure;Samples;Min_cycle;Max_cycle;Signal;HPM_P1;HPM_P2
2023/12/11 00:01:21;;;;;;;1.40;1.30;;;9.30;90.80;;;;;;5028095;28;20458;-77
2023/12/11 00:03:46;;;;;;;0.00;0.00;;;9.20;90.80;;;;;;5015728;28;20058;-78
2023/12/11 00:06:12;;;;;;;0.00;0.00;;;9.30;90.90;;;;;;5025395;28;20068;-77
2023/12/11 00:08:38;;;;;;;0.85;0.85;;;9.30;90.80;;;;;;5046075;28;20040;-77
2023/12/11 00:11:03;;;;;;;2.08;1.85;;;9.30;90.90;;;;;;5044095;28;20120;-77
2023/12/11 00:13:29;;;;;;;0.45;0.45;;;9.30;90.80;;;;;;4995458;28;20044;-77
2023/12/11 00:15:55;;;;;;;0.38;0.38;;;9.30;90.80;;;;;;5031522;28;20148;-78
2023/12/11 00:18:20;;;;;;;0.80;0.80;;;9.30;90.90;;;;;;5044019;28;20487;-77
2023/12/11 00:20:46;;;;;;;0.40;0.40;;;9.40;90.80;;;;;;5038625;28;20507;-77
2023/12/11 00:23:12;;;;;;;0.00;0.00;;;9.30;90.70;;;;;;5047563;28;20523;-77
2023/12/11 00:25:43;;;;;;;9.10;3.20;;;9.30;90.70;;;;;;5029563;28;20129;-76
2023/12/11 00:28:09;;;;;;;0.00;0.00;;;9.30;90.70;;;;;;5027746;28;20774;-77
2023/12/11 00:30:35;;;;;;;0.00;0.00;;;9.30;90.80;;;;;;5027150;28;20065;-77
2023/12/11 00:33:00;;;;;;;0.73;0.73;;;9.30;90.60;;;;;;5006592;28;20073;-77
2023/12/11 00:35:26;;;;;;;0.00;0.00;;;9.20;90.70;;;;;;5036472;28;20045;-77
2023/12/11 00:37:52;;;;;;;0.05;0.05;;;9.10;90.60;;;;;;5047125;28;20384;-77
2023/12/11 00:40:18;;;;;;;0.00;0.00;;;9.10;90.60;;;;;;5031066;28;20069;-78
2023/12/11 00:42:43;;;;;;;0.00;0.00;;;9.10;90.90;;;;;;5027656;28;20045;-78
2023/12/11 00:45:13;;;;;;;0.65;0.55;;;9.00;90.80;;;;;;5027312;28;20047;-78
2023/12/11 00:47:39;;;;;;;0.00;0.00;;;9.10;90.90;;;;;;5009667;28;20045;-78
2023/12/11 00:50:05;;;;;;;0.00;0.00;;;9.00;90.90;;;;;;5009443;28;20459;-77
2023/12/11 00:52:30;;;;;;;0.00;0.00;;;8.90;90.80;;;;;;5026946;28;20081;-77
2023/12/11 00:54:56;;;;;;;0.32;0.32;;;9.00;91.00;;;;;;5027000;28;20095;-77
2023/12/11 00:57:22;;;;;;;0.00;0.00;;;8.90;90.90;;;;;;5018089;28;20042;-77
2023/12/11 00:59:48;;;;;;;0.25;0.25;;;8.90;90.90;;;;;;5025976;28;20079;-78
2023/12/11 01:02:13;;;;;;;0.80;0.80;;;8.90;91.00;;;;;;5045891;28;20051;-77
2023/12/11 01:04:39;;;;;;;0.15;0.15;;;9.00;91.00;;;;;;5046881;28;20128;-77
2023/12/11 01:07:05;;;;;;;0.00;0.00;;;8.90;91.00;;;;;;5046927;28;20052;-78
2023/12/11 01:09:30;;;;;;;0.00;0.00;;;8.90;91.10;;;;;;5047112;28;20049;-77
2023/12/11 01:11:56;;;;;;;1.35;1.10;;;8.90;91.30;;;;;;5042273;28;20037;-76
2023/12/11 01:14:21;;;;;;;0.30;0.30;;;8.90;91.20;;;;;;5045189;28;20048;-78
2023/12/11 01:16:47;;;;;;;0.00;0.00;;;9.00;91.30;;;;;;5033640;28;20488;-77
2023/12/11 01:19:13;;;;;;;0.15;0.15;;;9.00;91.30;;;;;;5039572;28;20033;-77
2023/12/11 01:21:38;;;;;;;0.00;0.00;;;9.10;91.40;;;;;;5029351;28;20109;-78
2023/12/11 01:24:04;;;;;;;0.00;0.00;;;9.00;91.30;;;;;;5002287;28;20041;-77
2023/12/11 01:26:30;;;;;;;0.55;0.55;;;9.10;91.50;;;;;;5033207;28;20137;-78
2023/12/11 01:28:55;;;;;;;0.00;0.00;;;9.20;91.50;;;;;;5033773;28;20080;-77
2023/12/11 01:31:21;;;;;;;0.00;0.00;;;9.10;91.70;;;;;;5044581;28;20053;-77
2023/12/11 01:33:47;;;;;;;0.10;0.10;;;9.20;91.80;;;;;;5033350;28;20050;-78
2023/12/11 01:36:12;;;;;;;0.00;0.00;;;9.10;92.00;;;;;;5033469;28;20065;-77
2023/12/11 01:38:38;;;;;;;0.00;0.00;;;9.10;92.30;;;;;;5042268;28;20044;-76
2023/12/11 01:41:04;;;;;;;0.65;0.65;;;9.10;92.40;;;;;;5053329;28;20048;-77
2023/12/11 01:43:29;;;;;;;0.63;0.63;;;9.10;92.50;;;;;;5042445;28;20072;-77
2023/12/11 01:46:04;;;;;;;2.65;2.38;;;9.10;92.40;;;;;;5026412;28;20044;-77
2023/12/11 01:48:30;;;;;;;0.00;0.00;;;9.10;92.60;;;;;;5015730;28;20439;-77
2023/12/11 01:50:56;;;;;;;0.00;0.00;;;9.10;92.70;;;;;;5029406;28;20136;-77
2023/12/11 01:53:22;;;;;;;0.05;0.05;;;9.10;92.70;;;;;;5053444;28;20164;-77
2023/12/11 01:55:49;;;;;;;0.15;0.15;;;9.10;92.80;;;;;;5035533;28;20247;-77
2023/12/11 01:58:16;;;;;;;0.08;0.08;;;9.00;92.90;;;;;;5051140;28;20047;-77
2023/12/11 02:00:42;;;;;;;0.00;0.00;;;8.90;92.80;;;;;;5052424;28;20044;-77
2023/12/11 02:03:11;;;;;;;0.10;0.10;;;8.90;92.80;;;;;;5051409;28;20048;-77
2023/12/11 02:05:38;;;;;;;0.05;0.05;;;8.90;92.80;;;;;;5034037;28;20052;-77
2023/12/11 02:08:04;;;;;;;0.00;0.00;;;8.90;92.70;;;;;;5050814;28;20044;-77
2023/12/11 02:10:29;;;;;;;0.00;0.00;;;8.80;92.80;;;;;;5035024;28;20848;-77
2023/12/11 02:12:55;;;;;;;0.00;0.00;;;8.80;92.90;;;;;;5016898;28;20056;-77
2023/12/11 02:15:44;;;;;;;0.20;0.20;;;8.70;92.80;;;;;;5048893;28;20040;-77
2023/12/11 02:18:11;;;;;;;0.00;0.00;;;8.60;92.80;;;;;;5043812;28;20498;-77
2023/12/11 02:20:38;;;;;;;0.10;0.10;;;8.60;92.70;;;;;;5033036;28;20049;-77
2023/12/11 02:23:23;;;;;;;0.00;0.00;;;8.60;92.80;;;;;;5052290;28;20487;-77
2023/12/11 02:25:57;;;;;;;0.00;0.00;;;8.50;92.70;;;;;;5040481;28;20040;-77
2023/12/11 02:28:23;;;;;;;1.85;0.98;;;8.50;92.70;;;;;;5016145;28;20050;-77
2023/12/11 02:30:50;;;;;;;0.30;0.30;;;8.50;92.80;;;;;;5019404;28;20045;-77
2023/12/11 02:33:17;;;;;;;0.05;0.05;;;8.50;92.80;;;;;;5033302;28;20052;-77
2023/12/11 02:35:45;;;;;;;0.00;0.00;;;8.50;92.70;;;;;;5041618;28;20499;-77
2023/12/11 02:38:11;;;;;;;0.00;0.00;;;8.30;92.70;;;;;;5035827;28;20065;-78
2023/12/11 02:40:37;;;;;;;0.00;0.00;;;8.40;92.80;;;;;;5028591;28;20385;-77
2023/12/11 02:43:02;;;;;;;0.00;0.00;;;8.40;92.80;;;;;;5029284;28;20046;-77
2023/12/11 02:45:28;;;;;;;0.28;0.28;;;8.40;92.80;;;;;;5031444;28;20054;-78
2023/12/11 02:48:02;;;;;;;0.17;0.17;;;8.40;92.90;;;;;;5026939;28;20103;-77
2023/12/11 02:50:31;;;;;;;0.10;0.10;;;8.30;93.00;;;;;;5049442;28;20056;-77
2023/12/11 02:52:58;;;;;;;0.60;0.60;;;8.40;93.00;;;;;;5049114;28;20048;-78
2023/12/11 02:55:24;;;;;;;0.00;0.00;;;8.40;93.00;;;;;;5050869;28;20071;-77
2023/12/11 02:57:51;;;;;;;0.10;0.10;;;8.50;93.00;;;;;;5038354;28;20579;-77
2023/12/11 03:00:17;;;;;;;0.00;0.00;;;8.40;93.00;;;;;;5032812;28;20050;-77
2023/12/11 03:02:43;;;;;;;0.00;0.00;;;8.40;93.00;;;;;;5031192;28;20052;-77
2023/12/11 03:05:08;;;;;;;7.13;1.75;;;8.50;93.00;;;;;;5046221;28;20633;-77
2023/12/11 03:07:34;;;;;;;0.00;0.00;;;8.50;93.00;;;;;;5049112;28;20049;-77
2023/12/11 03:10:00;;;;;;;0.00;0.00;;;8.40;93.10;;;;;;5017588;28;20735;-77
2023/12/11 03:12:25;;;;;;;0.10;0.10;;;8.40;93.10;;;;;;5036308;28;20080;-77
2023/12/11 03:14:51;;;;;;;0.10;0.10;;;8.50;93.10;;;;;;5046901;28;20491;-78
2023/12/11 03:17:17;;;;;;;0.55;0.55;;;8.50;93.10;;;;;;5038785;28;20048;-78
2023/12/11 03:19:42;;;;;;;0.00;0.00;;;8.40;93.10;;;;;;5039538;28;20052;-78
2023/12/11 03:22:08;;;;;;;0.00;0.00;;;8.50;93.20;;;;;;5048115;28;20392;-78
2023/12/11 03:24:34;;;;;;;2.80;2.35;;;8.50;93.20;;;;;;5023260;28;20492;-77
2023/12/11 03:26:59;;;;;;;0.20;0.20;;;8.50;93.40;;;;;;5043711;28;20037;-77
2023/12/11 03:29:25;;;;;;;0.40;0.40;;;8.60;93.20;;;;;;5046443;28;20053;-77
2023/12/11 03:31:50;;;;;;;0.32;0.32;;;8.70;93.40;;;;;;5031430;28;20060;-77
2023/12/11 03:34:16;;;;;;;0.10;0.10;;;8.70;93.40;;;;;;5037256;28;20076;-77
2023/12/11 03:36:42;;;;;;;0.55;0.55;;;8.80;93.40;;;;;;5034659;28;20037;-78
2023/12/11 03:39:07;;;;;;;0.45;0.45;;;8.90;93.30;;;;;;5030406;28;20116;-77
2023/12/11 03:41:33;;;;;;;0.00;0.00;;;8.90;93.40;;;;;;5046855;28;20056;-77
2023/12/11 03:43:59;;;;;;;0.05;0.05;;;8.80;93.40;;;;;;5047280;28;20056;-77
2023/12/11 03:46:25;;;;;;;0.00;0.00;;;8.80;93.30;;;;;;5047799;28;20873;-77
2023/12/11 03:48:50;;;;;;;0.10;0.10;;;8.90;93.30;;;;;;5032738;28;20780;-77
2023/12/11 03:51:16;;;;;;;0.00;0.00;;;8.80;93.30;;;;;;5036224;28;20407;-77
2023/12/11 03:53:41;;;;;;;0.00;0.00;;;8.90;93.30;;;;;;5042580;28;20652;-77
2023/12/11 03:56:08;;;;;;;0.00;0.00;;;8.90;93.30;;;;;;5042801;28;20048;-77
2023/12/11 03:58:33;;;;;;;0.00;0.00;;;9.00;93.20;;;;;;5044060;28;20099;-77
2023/12/11 04:00:59;;;;;;;0.55;0.55;;;9.00;93.20;;;;;;5047975;28;20033;-77
2023/12/11 04:03:24;;;;;;;0.00;0.00;;;9.00;93.00;;;;;;5044860;28;20076;-77
2023/12/11 04:05:50;;;;;;;1.85;1.75;;;9.10;93.00;;;;;;5036052;28;20034;-76
2023/12/11 04:08:16;;;;;;;5.32;1.55;;;9.00;92.90;;;;;;5037099;28;20044;-77
2023/12/11 04:10:42;;;;;;;0.90;0.90;;;9.10;92.90;;;;;;5042109;28;20037;-77
2023/12/11 04:13:07;;;;;;;0.55;0.55;;;9.10;92.90;;;;;;5030849;28;20606;-76
2023/12/11 04:15:33;;;;;;;0.00;0.00;;;9.20;92.90;;;;;;5041490;28;20053;-77
2023/12/11 04:17:59;;;;;;;0.55;0.55;;;9.20;93.00;;;;;;5035698;28;20114;-77
2023/12/11 04:20:24;;;;;;;0.10;0.10;;;9.10;92.80;;;;;;5012021;28;20057;-77
2023/12/11 04:22:50;;;;;;;12.93;0.85;;;9.10;92.80;;;;;;5021821;28;20044;-77
2023/12/11 04:25:16;;;;;;;0.10;0.10;;;9.10;92.80;;;;;;5045434;28;20043;-77
2023/12/11 04:27:41;;;;;;;0.10;0.10;;;9.10;92.70;;;;;;5045203;28;20042;-77
2023/12/11 04:30:07;;;;;;;0.03;0.03;;;9.10;92.60;;;;;;5047352;28;20064;-77
2023/12/11 04:32:33;;;;;;;5.88;3.58;;;9.10;92.40;;;;;;5043158;28;20053;-77
2023/12/11 04:34:59;;;;;;;0.10;0.10;;;9.10;92.30;;;;;;5045143;28;20036;-77
2023/12/11 04:37:24;;;;;;;0.68;0.68;;;9.20;92.30;;;;;;5029509;28;20057;-77
2023/12/11 04:39:50;;;;;;;0.08;0.08;;;9.10;91.90;;;;;;5026949;28;20560;-77
2023/12/11 04:42:16;;;;;;;0.25;0.25;;;9.10;91.80;;;;;;5014567;28;20412;-77
2023/12/11 04:44:41;;;;;;;0.00;0.00;;;9.10;91.70;;;;;;5027355;28;20156;-77
2023/12/11 04:47:07;;;;;;;0.40;0.40;;;9.10;91.40;;;;;;5035508;28;20049;-77
2023/12/11 04:49:33;;;;;;;0.57;0.57;;;9.10;91.50;;;;;;5040407;28;20058;-77
2023/12/11 04:51:59;;;;;;;0.10;0.10;;;9.20;91.30;;;;;;5027313;28;20045;-77
2023/12/11 04:54:25;;;;;;;0.00;0.00;;;9.10;90.90;;;;;;5030688;28;20072;-76
2023/12/11 04:56:51;;;;;;;0.65;0.65;;;9.10;90.80;;;;;;5025936;28;20045;-77
2023/12/11 04:59:16;;;;;;;0.00;0.00;;;9.30;90.90;;;;;;5038472;28;20103;-77
2023/12/11 05:01:42;;;;;;;0.00;0.00;;;9.20;90.60;;;;;;5031907;28;20113;-77
2023/12/11 05:04:08;;;;;;;1.10;1.10;;;9.30;90.70;;;;;;5045673;28;20044;-77
2023/12/11 05:06:33;;;;;;;0.30;0.30;;;9.20;90.50;;;;;;5044911;28;20045;-77
2023/12/11 05:08:59;;;;;;;0.10;0.10;;;9.30;90.50;;;;;;5034616;28;20068;-77
2023/12/11 05:11:24;;;;;;;0.20;0.20;;;9.30;90.20;;;;;;5038393;28;20522;-76
2023/12/11 05:13:50;;;;;;;0.73;0.68;;;9.30;90.30;;;;;;5025692;28;20175;-77
2023/12/11 05:16:16;;;;;;;0.10;0.10;;;9.20;90.30;;;;;;5044553;28;20076;-77
2023/12/11 05:18:42;;;;;;;0.85;0.85;;;9.20;90.40;;;;;;5009641;28;20053;-77
2023/12/11 05:21:08;;;;;;;0.70;0.65;;;9.30;90.20;;;;;;5027635;28;20050;-77
2023/12/11 05:23:34;;;;;;;0.55;0.55;;;9.20;90.20;;;;;;5027518;28;20060;-77
2023/12/11 05:26:00;;;;;;;0.38;0.38;;;9.30;90.00;;;;;;5026731;28;20045;-77
2023/12/11 05:28:26;;;;;;;0.22;0.22;;;9.30;89.90;;;;;;4993220;28;20411;-77
2023/12/11 05:30:51;;;;;;;0.00;0.00;;;9.20;89.90;;;;;;5026853;28;20049;-76
2023/12/11 05:33:17;;;;;;;0.00;0.00;;;9.20;89.80;;;;;;5009747;28;20119;-77
2023/12/11 05:35:43;;;;;;;0.43;0.43;;;9.20;89.80;;;;;;5026430;28;20045;-77
2023/12/11 05:38:09;;;;;;;0.95;0.93;;;9.20;89.90;;;;;;5026923;28;20510;-77
2023/12/11 05:40:34;;;;;;;0.00;0.00;;;9.10;89.80;;;;;;5026917;28;20444;-77
2023/12/11 05:43:00;;;;;;;2.58;2.38;;;9.20;89.90;;;;;;5009261;28;20140;-77
2023/12/11 05:45:26;;;;;;;0.00;0.00;;;9.10;89.90;;;;;;5028842;28;20478;-77
2023/12/11 05:47:52;;;;;;;0.00;0.00;;;9.10;90.10;;;;;;5033203;28;20411;-77
2023/12/11 05:50:18;;;;;;;0.47;0.47;;;9.10;90.30;;;;;;5028928;28;20037;-76
2023/12/11 05:52:44;;;;;;;0.05;0.05;;;9.10;90.70;;;;;;5040298;28;20420;-77
2023/12/11 05:55:09;;;;;;;0.10;0.10;;;9.20;90.80;;;;;;5028397;28;20064;-77
2023/12/11 05:57:36;;;;;;;0.00;0.00;;;9.10;90.90;;;;;;5043248;28;20091;-77
2023/12/11 06:00:02;;;;;;;0.52;0.52;;;9.10;91.20;;;;;;5045600;28;20428;-76
2023/12/11 06:02:31;;;;;;;0.13;0.13;;;9.10;91.30;;;;;;5045432;28;20041;-77
2023/12/11 06:04:56;;;;;;;0.90;0.90;;;9.10;91.80;;;;;;5032495;28;20044;-77
2023/12/11 06:07:22;;;;;;;0.20;0.20;;;9.00;91.80;;;;;;5028718;28;20419;-77
2023/12/11 06:09:48;;;;;;;0.00;0.00;;;9.10;92.10;;;;;;5031358;28;20038;-77
2023/12/11 06:12:14;;;;;;;0.05;0.05;;;9.10;92.00;;;;;;5021087;28;20140;-77
2023/12/11 06:14:40;;;;;;;0.00;0.00;;;9.10;91.90;;;;;;5031877;28;21042;-77
2023/12/11 06:17:06;;;;;;;0.00;0.00;;;9.10;92.00;;;;;;4998974;28;20053;-77
2023/12/11 06:19:31;;;;;;;0.28;0.28;;;9.10;91.90;;;;;;5050037;28;20044;-77
2023/12/11 06:21:57;;;;;;;0.10;0.10;;;9.00;92.00;;;;;;5049902;28;20719;-77
2023/12/11 06:24:23;;;;;;;0.00;0.00;;;9.00;92.10;;;;;;5049499;28;20049;-77
2023/12/11 06:26:48;;;;;;;0.00;0.00;;;9.10;92.10;;;;;;5019862;28;20057;-76
2023/12/11 06:29:14;;;;;;;0.00;0.00;;;9.10;92.00;;;;;;5032673;28;20048;-77
2023/12/11 06:31:40;;;;;;;0.30;0.30;;;9.10;92.00;;;;;;5038914;28;20118;-77
2023/12/11 06:34:06;;;;;;;0.00;0.00;;;9.10;92.30;;;;;;5049688;28;20041;-77
2023/12/11 06:36:31;;;;;;;4.75;2.40;;;9.10;92.50;;;;;;5038479;28;20091;-77
2023/12/11 06:38:57;;;;;;;0.20;0.20;;;9.10;92.40;;;;;;5032577;28;20133;-77
2023/12/11 06:41:23;;;;;;;0.40;0.40;;;9.00;92.60;;;;;;5031353;28;20466;-77
2023/12/11 06:43:54;;;;;;;0.00;0.00;;;9.00;92.90;;;;;;5039677;28;20046;-77
2023/12/11 06:46:20;;;;;;;1.15;0.85;;;9.00;92.80;;;;;;5032454;28;20094;-77
2023/12/11 06:48:45;;;;;;;0.00;0.00;;;9.00;92.90;;;;;;5031694;28;20053;-77
2023/12/11 06:51:13;;;;;;;0.45;0.32;;;8.90;93.10;;;;;;5031313;28;20076;-77
2023/12/11 06:53:39;;;;;;;0.00;0.00;;;8.90;93.10;;;;;;5019022;28;20083;-77
2023/12/11 06:56:05;;;;;;;0.13;0.13;;;9.00;93.20;;;;;;5044601;28;20563;-76
2023/12/11 06:58:31;;;;;;;0.30;0.30;;;9.00;93.20;;;;;;5033634;28;20061;-77
2023/12/11 07:00:58;;;;;;;1.35;1.25;;;9.10;93.20;;;;;;5047441;28;20081;-78
2023/12/11 07:03:24;;;;;;;0.10;0.10;;;8.90;93.20;;;;;;5048464;28;20072;-77
2023/12/11 07:05:50;;;;;;;0.00;0.00;;;8.90;93.40;;;;;;5038609;28;20077;-78
2023/12/11 07:08:15;;;;;;;3.75;1.45;;;8.80;93.40;;;;;;5030178;28;20516;-77
2023/12/11 07:10:41;;;;;;;0.00;0.00;;;8.80;93.40;;;;;;5047588;28;20049;-78
2023/12/11 07:13:07;;;;;;;0.00;0.00;;;8.80;93.50;;;;;;5037248;28;20148;-77
2023/12/11 07:15:33;;;;;;;0.00;0.00;;;8.80;93.40;;;;;;5039554;28;20510;-77
2023/12/11 07:17:58;;;;;;;0.00;0.00;;;8.80;93.50;;;;;;5043246;28;20055;-75
2023/12/11 07:20:24;;;;;;;0.08;0.08;;;8.80;93.50;;;;;;5041173;28;20045;-75
2023/12/11 07:22:50;;;;;;;0.00;0.00;;;8.70;93.40;;;;;;5031598;28;20088;-76
2023/12/11 07:25:16;;;;;;;0.10;0.10;;;8.60;93.70;;;;;;5032646;28;20076;-77
2023/12/11 07:27:43;;;;;;;0.00;0.00;;;8.60;93.70;;;;;;5042946;28;20124;-77
2023/12/11 07:30:09;;;;;;;0.00;0.00;;;8.60;93.80;;;;;;5025337;28;20053;-77
2023/12/11 07:32:35;;;;;;;0.10;0.10;;;8.60;93.80;;;;;;5029914;28;20045;-76
2023/12/11 07:35:01;;;;;;;0.10;0.10;;;8.60;93.80;;;;;;5019367;28;20061;-76
2023/12/11 07:37:27;;;;;;;0.10;0.10;;;8.60;93.80;;;;;;5027022;28;20054;-76
2023/12/11 07:39:53;;;;;;;0.05;0.05;;;8.60;93.90;;;;;;4998786;28;20049;-76
2023/12/11 07:42:18;;;;;;;0.00;0.00;;;8.60;93.90;;;;;;4976764;28;20097;-76
2023/12/11 07:44:44;;;;;;;0.10;0.10;;;8.60;94.00;;;;;;5009841;28;20110;-76
2023/12/11 07:47:10;;;;;;;0.17;0.17;;;8.60;94.00;;;;;;5010198;28;20086;-76
2023/12/11 07:49:37;;;;;;;0.00;0.00;;;8.60;93.90;;;;;;5015479;28;20096;-77
2023/12/11 07:52:03;;;;;;;1.10;0.28;;;8.60;94.00;;;;;;5029842;28;20072;-71
2023/12/11 07:54:28;;;;;;;0.00;0.00;;;8.50;94.00;;;;;;5004498;28;20045;-76
2023/12/11 07:56:54;;;;;;;0.00;0.00;;;8.50;94.00;;;;;;5022399;28;20034;-77
2023/12/11 07:59:20;;;;;;;0.10;0.10;;;8.50;94.00;;;;;;5001626;28;20056;-76
2023/12/11 08:01:45;;;;;;;0.10;0.10;;;8.50;94.00;;;;;;5007383;28;20053;-75
2023/12/11 08:04:12;;;;;;;0.00;0.00;;;8.50;94.10;;;;;;5005082;28;20046;-76
2023/12/11 08:06:42;;;;;;;0.00;0.00;;;8.40;94.10;;;;;;5007641;28;20524;-76
2023/12/11 08:09:08;;;;;;;0.00;0.00;;;8.50;94.10;;;;;;5007844;28;20104;-76
2023/12/11 08:11:35;;;;;;;0.00;0.00;;;8.50;94.30;;;;;;5007101;28;20057;-76
2023/12/11 08:14:01;;;;;;;0.60;0.52;;;8.40;94.30;;;;;;5007505;28;20048;-76
2023/12/11 08:16:27;;;;;;;0.25;0.25;;;8.50;94.40;;;;;;4998870;28;20034;-75
2023/12/11 08:18:52;;;;;;;0.95;0.90;;;8.50;94.40;;;;;;5007652;28;20069;-76
2023/12/11 08:21:18;;;;;;;0.03;0.03;;;8.50;94.50;;;;;;4987729;28;20038;-75
2023/12/11 08:23:44;;;;;;;0.00;0.00;;;8.50;94.60;;;;;;5007169;28;20092;-75
2023/12/11 08:26:11;;;;;;;0.20;0.20;;;8.60;94.80;;;;;;5007577;28;20139;-75
2023/12/11 08:28:37;;;;;;;0.20;0.20;;;8.60;94.60;;;;;;5001238;28;20078;-75
2023/12/11 08:31:03;;;;;;;1.05;1.00;;;8.60;94.80;;;;;;5026631;28;20085;-77
2023/12/11 08:33:29;;;;;;;0.03;0.03;;;8.70;94.80;;;;;;5025263;28;20140;-76
2023/12/11 08:35:55;;;;;;;0.00;0.00;;;8.70;94.80;;;;;;5011272;28;20041;-76
2023/12/11 08:38:22;;;;;;;0.00;0.00;;;8.70;94.80;;;;;;4982261;28;20059;-76
2023/12/11 08:40:48;;;;;;;0.20;0.20;;;8.80;94.80;;;;;;5023358;28;20065;-76
2023/12/11 08:43:13;;;;;;;0.00;0.00;;;8.80;94.80;;;;;;5022449;28;20049;-75
2023/12/11 08:45:39;;;;;;;0.00;0.00;;;8.80;94.70;;;;;;5022300;28;20049;-77
2023/12/11 08:48:05;;;;;;;0.08;0.08;;;8.90;94.80;;;;;;5021133;28;20128;-75
2023/12/11 08:50:31;;;;;;;0.63;0.63;;;8.90;94.80;;;;;;5018136;28;20184;-76
2023/12/11 08:52:59;;;;;;;0.00;0.00;;;9.00;94.90;;;;;;5009842;28;20094;-76
2023/12/11 08:55:24;;;;;;;0.00;0.00;;;9.00;94.90;;;;;;5022254;28;20170;-75
2023/12/11 08:57:50;;;;;;;1.48;1.15;;;9.00;94.90;;;;;;5020494;28;20156;-75
2023/12/11 09:00:16;;;;;;;0.00;0.00;;;9.00;95.00;;;;;;5021570;28;20416;-76
2023/12/11 09:02:42;;;;;;;0.00;0.00;;;9.10;94.80;;;;;;5017824;28;20049;-76
2023/12/11 09:05:08;;;;;;;0.03;0.03;;;9.10;94.90;;;;;;5022550;28;20060;-76
2023/12/11 09:07:34;;;;;;;0.00;0.00;;;9.10;94.90;;;;;;5022475;28;20073;-75
2023/12/11 09:10:01;;;;;;;1.10;1.10;;;9.10;94.90;;;;;;5022016;28;20061;-75
2023/12/11 09:12:27;;;;;;;1.55;1.05;;;9.10;94.80;;;;;;5021667;28;20224;-75
2023/12/11 09:14:52;;;;;;;0.00;0.00;;;9.20;94.70;;;;;;5022411;28;20858;-76
2023/12/11 09:17:18;;;;;;;0.00;0.00;;;9.10;94.60;;;;;;5007126;28;20764;-77
2023/12/11 09:19:44;;;;;;;0.00;0.00;;;9.10;94.70;;;;;;5023207;28;20133;-77
2023/12/11 09:22:11;;;;;;;0.00;0.00;;;9.10;94.50;;;;;;5022421;28;20042;-77
2023/12/11 09:24:37;;;;;;;4.25;0.82;;;9.10;94.60;;;;;;5022683;28;20407;-77
2023/12/11 09:27:04;;;;;;;0.03;0.03;;;9.10;94.50;;;;;;5021989;28;20037;-80
2023/12/11 09:29:30;;;;;;;0.08;0.08;;;9.20;94.60;;;;;;5022472;28;20091;-78
2023/12/11 09:31:55;;;;;;;0.00;0.00;;;9.20;94.30;;;;;;5022254;28;20081;-78
2023/12/11 09:34:21;;;;;;;0.25;0.25;;;9.20;94.40;;;;;;5023866;28;20466;-77
2023/12/11 09:36:47;;;;;;;0.00;0.00;;;9.20;94.30;;;;;;5021622;28;20120;-78
2023/12/11 09:39:13;;;;;;;0.00;0.00;;;9.20;94.20;;;;;;5022464;28;20625;-78
2023/12/11 09:41:39;;;;;;;2.28;2.17;;;9.10;94.20;;;;;;5024861;28;20046;-79
2023/12/11 09:44:06;;;;;;;0.00;0.00;;;9.20;94.10;;;;;;5026005;28;20053;-79
2023/12/11 09:46:44;;;;;;;0.05;0.05;;;9.20;94.10;;;;;;5012119;28;20049;-77
2023/12/11 09:49:10;;;;;;;1.92;1.50;;;9.30;93.90;;;;;;5009827;28;20584;-76
2023/12/11 09:51:36;;;;;;;0.00;0.00;;;9.30;93.80;;;;;;5009853;28;20045;-76
2023/12/11 09:54:03;;;;;;;0.00;0.00;;;9.30;93.70;;;;;;5025153;28;20515;-76
2023/12/11 09:56:30;;;;;;;0.00;0.00;;;9.30;93.70;;;;;;5028843;28;20049;-78
2023/12/11 09:58:57;;;;;;;0.00;0.00;;;9.30;93.60;;;;;;5031253;28;20053;-80
2023/12/11 10:01:23;;;;;;;0.00;0.00;;;9.30;93.50;;;;;;5032096;28;20056;-80
2023/12/11 10:03:48;;;;;;;0.55;0.55;;;9.40;93.30;;;;;;5031532;28;20045;-76
2023/12/11 10:06:14;;;;;;;9.30;2.28;;;9.40;93.30;;;;;;5012321;28;20048;-79
2023/12/11 10:08:45;;;;;;;0.10;0.10;;;9.30;93.30;;;;;;5031577;28;20038;-79
2023/12/11 10:11:14;;;;;;;0.03;0.03;;;9.30;93.10;;;;;;5031369;28;20108;-79
2023/12/11 10:13:39;;;;;;;0.00;0.00;;;9.40;93.20;;;;;;5031439;28;20115;-79
2023/12/11 10:16:25;;;;;;;6.47;1.65;;;9.40;93.00;;;;;;5030989;28;20073;-78
2023/12/11 10:18:51;;;;;;;0.10;0.10;;;9.30;93.20;;;;;;4993023;28;20526;-76
2023/12/11 10:21:16;;;;;;;1.25;1.02;;;9.40;93.00;;;;;;5004698;28;20038;-75
2023/12/11 10:23:42;;;;;;;0.00;0.00;;;9.40;93.30;;;;;;5018692;28;20048;-76
2023/12/11 10:26:08;;;;;;;0.10;0.10;;;9.50;92.80;;;;;;5028599;28;20033;-76
2023/12/11 10:28:34;;;;;;;0.00;0.00;;;9.50;92.40;;;;;;5011194;28;20088;-75
2023/12/11 10:31:04;;;;;;;0.00;0.00;;;9.60;92.00;;;;;;5029450;28;20133;-75
2023/12/11 10:33:31;;;;;;;0.10;0.10;;;9.60;91.80;;;;;;5018747;28;20045;-76
2023/12/11 10:36:23;;;;;;;0.63;0.63;;;9.60;92.10;;;;;;5034255;28;20045;-75
2023/12/11 10:38:52;;;;;;;0.10;0.10;;;9.60;91.90;;;;;;5025804;28;20053;-75
2023/12/11 10:41:25;;;;;;;0.00;0.00;;;9.60;91.50;;;;;;5026870;28;20045;-75
2023/12/11 10:43:51;;;;;;;0.00;0.00;;;9.50;90.90;;;;;;5025613;28;20045;-74
2023/12/11 10:46:17;;;;;;;0.00;0.00;;;9.50;91.00;;;;;;5021525;28;20057;-75
2023/12/11 10:48:43;;;;;;;0.00;0.00;;;9.50;91.00;;;;;;5028416;28;20038;-75
2023/12/11 10:51:10;;;;;;;0.00;0.00;;;9.40;90.60;;;;;;5028752;28;20052;-74
2023/12/11 10:53:35;;;;;;;0.00;0.00;;;9.50;90.60;;;;;;5022902;28;20045;-75
2023/12/11 10:56:02;;;;;;;1.45;1.40;;;9.50;90.60;;;;;;5027739;28;20591;-74
2023/12/11 10:58:28;;;;;;;0.00;0.00;;;9.40;90.90;;;;;;5027124;28;20041;-74
2023/12/11 11:00:56;;;;;;;0.00;0.00;;;9.50;91.20;;;;;;5026490;28;20049;-73
2023/12/11 11:03:22;;;;;;;0.00;0.00;;;9.50;91.40;;;;;;5028020;28;20086;-74
2023/12/11 11:05:50;;;;;;;0.00;0.00;;;9.50;91.50;;;;;;5018557;28;20045;-74
2023/12/11 11:08:54;;;;;;;1.05;1.05;;;9.50;91.70;;;;;;5027721;28;20081;-74
2023/12/11 11:11:23;;;;;;;0.00;0.00;;;9.40;91.90;;;;;;5023625;28;20038;-74
2023/12/11 11:13:55;;;;;;;1.52;1.35;;;9.50;92.10;;;;;;5025911;28;20647;-74
2023/12/11 11:16:21;;;;;;;0.55;0.55;;;9.40;91.90;;;;;;5022668;28;20041;-74
2023/12/11 11:19:06;;;;;;;0.00;0.00;;;9.30;91.30;;;;;;5027490;28;20057;-74
2023/12/11 11:21:32;;;;;;;0.00;0.00;;;9.40;91.50;;;;;;5027020;28;20045;-74
2023/12/11 11:23:57;;;;;;;0.00;0.00;;;9.30;91.30;;;;;;5024506;28;20041;-74
2023/12/11 11:26:35;;;;;;;0.00;0.00;;;9.30;91.20;;;;;;5026546;28;20118;-74
2023/12/11 11:29:05;;;;;;;0.15;0.15;;;9.30;90.90;;;;;;5026088;28;20056;-74
2023/12/11 11:31:51;;;;;;;0.80;0.80;;;9.30;90.90;;;;;;5027294;28;20576;-74
2023/12/11 11:34:45;;;;;;;0.98;0.98;;;9.20;90.50;;;;;;5024460;28;20061;-75
2023/12/11 11:37:37;;;;;;;0.00;0.00;;;9.20;90.00;;;;;;5026242;28;20046;-74
2023/12/11 11:40:04;;;;;;;0.03;0.03;;;9.20;90.00;;;;;;5024692;28;20052;-75
2023/12/11 11:42:35;;;;;;;0.00;0.00;;;9.20;89.80;;;;;;5024869;28;20385;-74
2023/12/11 11:45:11;;;;;;;0.00;0.00;;;9.20;89.70;;;;;;5025330;28;20567;-74
2023/12/11 11:47:37;;;;;;;0.10;0.10;;;9.20;90.10;;;;;;5024815;28;20527;-74
2023/12/11 11:50:12;;;;;;;0.00;0.00;;;9.10;89.70;;;;;;5025929;28;20046;-75
2023/12/11 11:52:41;;;;;;;0.00;0.00;;;9.20;89.70;;;;;;5026433;28;20121;-73
2023/12/11 11:55:20;;;;;;;0.00;0.00;;;9.10;90.20;;;;;;5025719;28;20065;-74
2023/12/11 11:57:46;;;;;;;2.00;1.85;;;9.20;90.20;;;;;;5026293;28;20046;-75
2023/12/11 12:00:12;;;;;;;0.00;0.00;;;9.30;89.60;;;;;;5026409;28;20136;-74
2023/12/11 12:02:38;;;;;;;0.03;0.03;;;9.20;89.30;;;;;;5025721;28;20053;-75
2023/12/11 12:05:11;;;;;;;1.13;1.02;;;9.20;89.60;;;;;;5025698;28;20507;-75
2023/12/11 12:07:40;;;;;;;0.00;0.00;;;9.20;89.60;;;;;;5024284;28;21363;-75
2023/12/11 12:10:07;;;;;;;1.20;1.10;;;9.20;89.40;;;;;;5025403;28;20583;-75
2023/12/11 12:12:33;;;;;;;0.00;0.00;;;9.10;89.30;;;;;;5027056;28;20033;-74
2023/12/11 12:15:07;;;;;;;0.08;0.08;;;9.10;89.50;;;;;;5026449;28;20056;-74
2023/12/11 12:17:34;;;;;;;0.00;0.00;;;9.10;89.20;;;;;;5006380;28;20049;-74
2023/12/11 12:20:08;;;;;;;0.17;0.17;;;9.10;89.80;;;;;;5018065;28;20697;-74
2023/12/11 12:22:34;;;;;;;1.65;1.55;;;9.00;89.70;;;;;;5023206;28;20531;-75
2023/12/11 12:25:00;;;;;;;0.00;0.00;;;9.00;89.40;;;;;;5024248;28;20053;-75
2023/12/11 12:27:26;;;;;;;0.40;0.40;;;9.00;89.10;;;;;;5019700;28;20044;-75
2023/12/11 12:29:52;;;;;;;0.00;0.00;;;9.00;89.40;;;;;;5021551;28;20132;-74
2023/12/11 12:32:19;;;;;;;0.00;0.00;;;9.00;88.90;;;;;;5025311;28;20045;-75
2023/12/11 12:34:47;;;;;;;0.08;0.08;;;8.90;88.60;;;;;;5025441;28;20057;-75
2023/12/11 12:37:15;;;;;;;0.10;0.10;;;8.80;88.60;;;;;;5024845;28;20045;-75
2023/12/11 12:39:41;;;;;;;0.00;0.00;;;8.90;88.50;;;;;;5023753;28;20069;-74
2023/12/11 12:42:07;;;;;;;0.00;0.00;;;8.90;88.20;;;;;;5021557;28;20045;-74
2023/12/11 12:44:41;;;;;;;0.00;0.00;;;9.10;88.60;;;;;;5024785;28;20050;-74
2023/12/11 12:47:09;;;;;;;0.00;0.00;;;9.00;87.90;;;;;;5030820;23;20087;-71
2023/12/11 12:49:35;;;;;;;0.00;0.00;;;8.90;87.70;;;;;;5020187;28;20499;-72
2023/12/11 12:52:01;;;;;;;0.00;0.00;;;8.90;87.80;;;;;;5020496;28;20049;-72
2023/12/11 12:54:27;;;;;;;0.00;0.00;;;8.80;87.20;;;;;;5008576;28;20068;-72
2023/12/11 12:56:55;;;;;;;0.00;0.00;;;8.80;87.50;;;;;;5027784;28;20047;-72